createdAt,value
2019-06-01T00:00:11.001Z,5.20
2019-06-01T00:01:01.497Z,4.80
2019-06-01T00:02:00.435Z,5.50
2019-06-01T00:03:00.429Z,4.70
2019-06-01T00:04:00.678Z,5.10
2019-06-01T00:05:00.389Z,5.10
2019-06-01T00:06:00.378Z,5.40
2019-06-01T00:07:00.364Z,5.10
2019-06-01T00:08:00.358Z,5.00
2019-06-01T00:09:00.359Z,5.40
2019-06-01T00:10:00.334Z,4.80
2019-06-01T00:11:00.323Z,5.20
2019-06-01T00:12:00.316Z,5.30
2019-06-01T00:13:00.303Z,5.10
2019-06-01T00:14:00.305Z,4.70
2019-06-01T00:15:00.282Z,4.80
2019-06-01T00:16:00.275Z,5.90
2019-06-01T00:17:00.259Z,5.00
2019-06-01T00:18:00.260Z,4.80
2019-06-01T00:19:00.257Z,4.80
2019-06-01T00:20:00.232Z,5.20
2019-06-01T00:21:00.219Z,5.30
2019-06-01T00:22:00.211Z,5.00
2019-06-01T00:23:00.198Z,5.30
2019-06-01T00:24:00.209Z,5.20
2019-06-01T00:25:00.179Z,5.20
2019-06-01T00:26:00.186Z,4.90
2019-06-01T00:27:00.161Z,5.90
2019-06-01T00:28:00.151Z,4.80
2019-06-01T00:29:00.161Z,5.40
2019-06-01T00:30:00.124Z,4.90
2019-06-01T00:31:00.127Z,5.90
2019-06-01T00:32:00.113Z,4.70
2019-06-01T00:33:00.094Z,4.80
2019-06-01T00:34:00.098Z,4.90
2019-06-01T00:35:00.079Z,4.90
2019-06-01T00:36:00.063Z,5.20
2019-06-01T00:37:00.061Z,5.30
2019-06-01T00:38:00.042Z,4.90
2019-06-01T00:39:00.046Z,4.90
2019-06-01T00:40:00.023Z,4.50
2019-06-01T00:41:00.014Z,5.00
2019-06-01T00:42:00.000Z,5.40
2019-06-01T00:42:59.989Z,4.70
2019-06-01T00:44:00.030Z,4.80
2019-06-01T00:44:59.965Z,5.50
2019-06-01T00:46:00.698Z,4.80
2019-06-01T00:46:59.945Z,5.40
2019-06-01T00:47:59.935Z,4.50
2019-06-01T00:48:59.954Z,4.70
2019-06-01T00:49:59.923Z,5.10
2019-06-01T00:50:59.907Z,5.00
2019-06-01T00:51:59.895Z,4.50
2019-06-01T00:52:59.910Z,4.80
2019-06-01T00:54:00.667Z,5.20
2019-06-01T00:54:59.889Z,4.90
2019-06-01T00:55:59.854Z,5.00
2019-06-01T00:56:59.847Z,5.40
2019-06-01T00:57:59.841Z,4.90
2019-06-01T00:58:59.820Z,5.00
2019-06-01T00:59:59.829Z,4.60
2019-06-01T01:00:59.803Z,5.60
2019-06-01T01:01:59.801Z,5.00
2019-06-01T01:02:59.783Z,5.00
2019-06-01T01:03:59.769Z,4.60
2019-06-01T01:04:59.850Z,6.30
2019-06-01T01:05:59.749Z,4.80
2019-06-01T01:06:59.737Z,5.00
2019-06-01T01:07:59.730Z,4.90
2019-06-01T01:08:59.721Z,4.90
2019-06-01T01:09:59.724Z,5.10
2019-06-01T01:10:59.700Z,5.10
2019-06-01T01:11:59.692Z,4.90
2019-06-01T01:12:59.679Z,4.70
2019-06-01T01:13:59.666Z,4.90
2019-06-01T01:14:59.676Z,5.10
2019-06-01T01:15:59.645Z,5.20
2019-06-01T01:16:59.636Z,4.40
2019-06-01T01:17:59.629Z,5.20
2019-06-01T01:18:59.620Z,4.60
2019-06-01T01:19:59.632Z,5.00
2019-06-01T01:20:59.594Z,4.50
2019-06-01T01:21:59.586Z,4.90
2019-06-01T01:22:59.574Z,4.60
2019-06-01T01:23:59.576Z,4.90
2019-06-01T01:24:59.568Z,5.10
2019-06-01T01:25:59.543Z,5.30
2019-06-01T01:26:59.575Z,5.10
2019-06-01T01:27:59.522Z,5.10
2019-06-01T01:28:59.514Z,4.50
2019-06-01T01:29:59.513Z,4.80
2019-06-01T01:31:12.092Z,6.00
2019-06-01T01:32:00.481Z,4.90
2019-06-01T01:32:59.588Z,4.60
2019-06-01T01:33:59.459Z,5.00
2019-06-01T01:34:59.459Z,4.80
2019-06-01T01:35:59.443Z,4.40
2019-06-01T01:36:59.426Z,5.10
2019-06-01T01:38:00.149Z,4.90
2019-06-01T01:38:59.408Z,4.90
2019-06-01T01:39:59.413Z,4.80
2019-06-01T01:40:59.535Z,4.50
2019-06-01T01:41:59.372Z,4.60
2019-06-01T01:42:59.366Z,5.30
2019-06-01T01:43:59.356Z,4.60
2019-06-01T01:44:59.357Z,4.70
2019-06-01T01:45:59.330Z,4.90
2019-06-01T01:46:59.324Z,4.50
2019-06-01T01:47:59.333Z,4.70
2019-06-01T01:48:59.305Z,4.90
2019-06-01T01:49:59.312Z,5.10
2019-06-01T01:50:59.287Z,4.60
2019-06-01T01:51:59.522Z,4.70
2019-06-01T01:52:59.271Z,5.30
2019-06-01T01:53:59.249Z,4.80
2019-06-01T01:54:59.254Z,4.30
2019-06-01T01:55:59.235Z,4.20
2019-06-01T01:56:59.228Z,4.70
2019-06-01T01:57:59.521Z,4.60
2019-06-01T01:58:59.199Z,4.80
2019-06-01T01:59:59.460Z,4.90
2019-06-01T02:01:00.336Z,5.00
2019-06-01T02:02:00.169Z,4.60
2019-06-01T02:03:00.100Z,4.80
2019-06-01T02:03:59.154Z,4.70
2019-06-01T02:04:59.921Z,4.70
2019-06-01T02:05:59.213Z,5.30
2019-06-01T02:07:00.308Z,4.50
2019-06-01T02:08:00.074Z,4.80
2019-06-01T02:08:59.426Z,4.70
2019-06-01T02:09:59.299Z,4.50
2019-06-01T02:10:59.521Z,4.60
2019-06-01T02:11:59.633Z,4.70
2019-06-01T02:12:59.645Z,5.00
2019-06-01T02:13:59.935Z,4.40
2019-06-01T02:14:59.789Z,4.90
2019-06-01T02:16:00.559Z,4.30
2019-06-01T02:17:00.272Z,4.60
2019-06-01T02:18:00.464Z,4.40
2019-06-01T02:19:00.437Z,4.50
2019-06-01T02:20:00.208Z,5.00
2019-06-01T02:20:58.970Z,4.30
2019-06-01T02:21:58.963Z,4.40
2019-06-01T02:22:59.011Z,4.80
2019-06-01T02:23:59.100Z,4.50
2019-06-01T02:24:59.871Z,4.50
2019-06-01T02:25:58.959Z,4.40
2019-06-01T02:26:59.327Z,4.60
2019-06-01T02:27:59.278Z,4.60
2019-06-01T02:28:59.539Z,4.00
2019-06-01T02:29:59.380Z,4.90
2019-06-01T02:30:59.965Z,5.10
2019-06-01T02:31:59.252Z,4.40
2019-06-01T02:33:00.172Z,4.80
2019-06-01T02:34:01.031Z,4.60
2019-06-01T02:35:00.208Z,4.40
2019-06-01T02:36:00.647Z,4.50
2019-06-01T02:37:00.235Z,4.70
2019-06-01T02:38:00.177Z,4.50
2019-06-01T02:39:00.915Z,4.50
2019-06-01T02:39:58.792Z,4.70
2019-06-01T02:40:58.958Z,4.40
2019-06-01T02:42:01.076Z,4.40
2019-06-01T02:42:59.283Z,5.40
2019-06-01T02:43:59.128Z,4.90
2019-06-01T02:44:59.224Z,4.70
2019-06-01T02:46:00.366Z,4.40
2019-06-01T02:46:59.551Z,4.90
2019-06-01T02:47:59.485Z,4.50
2019-06-01T02:48:59.802Z,4.70
2019-06-01T02:49:59.434Z,4.40
2019-06-01T02:50:59.922Z,4.60
2019-06-01T02:51:59.246Z,4.90
2019-06-01T02:52:59.429Z,4.40
2019-06-01T02:53:59.594Z,4.90
2019-06-01T02:54:59.632Z,4.70
2019-06-01T02:55:59.845Z,4.60
2019-06-01T02:56:58.593Z,4.90
2019-06-01T02:57:58.588Z,4.50
2019-06-01T02:58:58.573Z,4.20
2019-06-01T02:59:58.574Z,4.80
2019-06-01T03:00:59.014Z,4.40
2019-06-01T03:02:04.818Z,4.90
2019-06-01T03:03:00.722Z,4.70
2019-06-01T03:03:59.524Z,4.20
2019-06-01T03:04:59.064Z,4.40
2019-06-01T03:05:59.277Z,4.60
2019-06-01T03:06:59.522Z,4.80
2019-06-01T03:07:59.362Z,4.60
2019-06-01T03:08:59.775Z,4.60
2019-06-01T03:09:58.766Z,4.40
2019-06-01T03:10:59.642Z,4.60
2019-06-01T03:11:59.363Z,4.30
2019-06-01T03:12:58.427Z,4.80
2019-06-01T03:13:58.419Z,4.60
2019-06-01T03:14:58.403Z,4.20
2019-06-01T03:15:58.406Z,4.40
2019-06-01T03:16:59.817Z,4.20
2019-06-01T03:17:59.407Z,4.80
2019-06-01T03:18:59.621Z,4.40
2019-06-01T03:19:59.534Z,4.20
2019-06-01T03:20:59.491Z,4.30
2019-06-01T03:21:59.561Z,4.40
2019-06-01T03:22:59.601Z,4.90
2019-06-01T03:23:58.310Z,5.10
2019-06-01T03:24:58.298Z,4.60
2019-06-01T03:25:58.303Z,4.50
2019-06-01T03:26:58.281Z,4.40
2019-06-01T03:27:58.276Z,4.20
2019-06-01T03:28:58.257Z,4.40
2019-06-01T03:29:58.247Z,4.60
2019-06-01T03:30:58.256Z,4.50
2019-06-01T03:32:19.122Z,4.50
2019-06-01T03:33:01.080Z,4.60
2019-06-01T03:33:58.213Z,4.40
2019-06-01T03:34:58.195Z,4.20
2019-06-01T03:35:58.201Z,4.40
2019-06-01T03:36:58.177Z,4.00
2019-06-01T03:37:58.164Z,4.20
2019-06-01T03:38:58.157Z,4.90
2019-06-01T03:39:58.149Z,4.70
2019-06-01T03:40:58.146Z,4.70
2019-06-01T03:41:58.134Z,4.60
2019-06-01T03:42:58.142Z,4.60
2019-06-01T03:43:58.127Z,4.70
2019-06-01T03:44:58.089Z,4.40
2019-06-01T03:45:58.096Z,4.60
2019-06-01T03:46:58.174Z,4.50
2019-06-01T03:47:58.063Z,4.50
2019-06-01T03:48:58.052Z,4.60
2019-06-01T03:49:58.042Z,4.00
2019-06-01T03:50:58.724Z,4.60
2019-06-01T03:51:58.023Z,4.60
2019-06-01T03:52:58.008Z,4.50
2019-06-01T03:53:58.017Z,4.80
2019-06-01T03:54:57.986Z,4.60
2019-06-01T03:55:57.990Z,4.20
2019-06-01T03:56:57.975Z,4.30
2019-06-01T03:57:57.956Z,4.60
2019-06-01T03:58:57.943Z,5.10
2019-06-01T03:59:57.943Z,4.20
2019-06-01T04:00:57.946Z,4.20
2019-06-01T04:01:57.923Z,4.40
2019-06-01T04:02:57.905Z,4.80
2019-06-01T04:03:57.895Z,4.90
2019-06-01T04:04:57.891Z,4.70
2019-06-01T04:05:57.893Z,4.30
2019-06-01T04:06:57.869Z,4.30
2019-06-01T04:07:57.854Z,4.10
2019-06-01T04:08:57.846Z,4.00
2019-06-01T04:09:57.835Z,4.40
2019-06-01T04:10:57.843Z,4.60
2019-06-01T04:11:57.818Z,4.40
2019-06-01T04:12:57.804Z,4.10
2019-06-01T04:13:57.789Z,4.70
2019-06-01T04:14:57.787Z,4.80
2019-06-01T04:15:57.766Z,5.00
2019-06-01T04:16:57.774Z,5.20
2019-06-01T04:17:57.750Z,5.20
2019-06-01T04:18:57.741Z,4.30
2019-06-01T04:19:57.740Z,4.00
2019-06-01T04:20:57.717Z,6.30
2019-06-01T04:21:57.724Z,4.20
2019-06-01T04:22:57.695Z,5.20
2019-06-01T04:23:57.686Z,4.60
2019-06-01T04:24:57.679Z,4.50
2019-06-01T04:25:57.664Z,4.10
2019-06-01T04:26:57.669Z,4.50
2019-06-01T04:27:57.641Z,6.50
2019-06-01T04:28:57.639Z,8.40
2019-06-01T04:29:57.627Z,6.40
2019-06-01T04:30:57.614Z,6.60
2019-06-01T04:31:57.609Z,5.60
2019-06-01T04:32:57.591Z,6.30
2019-06-01T04:33:57.579Z,6.70
2019-06-01T04:34:57.571Z,6.10
2019-06-01T04:35:57.560Z,6.60
2019-06-01T04:36:57.567Z,6.10
2019-06-01T04:37:57.541Z,7.90
2019-06-01T04:38:57.537Z,7.10
2019-06-01T04:39:57.527Z,6.60
2019-06-01T04:40:57.522Z,6.50
2019-06-01T04:41:57.513Z,6.30
2019-06-01T04:42:57.487Z,7.60
2019-06-01T04:43:57.475Z,6.70
2019-06-01T04:44:57.466Z,6.60
2019-06-01T04:45:57.463Z,6.60
2019-06-01T04:46:57.455Z,6.70
2019-06-01T04:47:57.435Z,7.70
2019-06-01T04:48:57.422Z,6.30
2019-06-01T04:49:57.411Z,6.60
2019-06-01T04:50:57.401Z,6.30
2019-06-01T04:51:57.403Z,7.80
2019-06-01T04:52:57.377Z,6.60
2019-06-01T04:53:57.367Z,7.00
2019-06-01T04:54:57.356Z,5.80
2019-06-01T04:55:57.348Z,7.00
2019-06-01T04:56:57.768Z,6.50
2019-06-01T04:57:57.322Z,7.10
2019-06-01T04:58:57.320Z,7.60
2019-06-01T04:59:57.308Z,6.90
2019-06-01T05:00:57.296Z,7.40
2019-06-01T05:01:57.300Z,9.30
2019-06-01T05:03:05.276Z,6.70
2019-06-01T05:03:58.274Z,7.20
2019-06-01T05:04:57.253Z,6.90
2019-06-01T05:05:57.248Z,7.30
2019-06-01T05:06:57.245Z,7.60
2019-06-01T05:07:57.219Z,6.90
2019-06-01T05:08:57.208Z,7.00
2019-06-01T05:09:57.204Z,6.90
2019-06-01T05:10:57.218Z,7.10
2019-06-01T05:11:57.198Z,7.00
2019-06-01T05:12:57.173Z,7.40
2019-06-01T05:13:57.163Z,7.00
2019-06-01T05:14:57.152Z,7.80
2019-06-01T05:15:57.140Z,6.90
2019-06-01T05:16:57.141Z,8.30
2019-06-01T05:17:57.113Z,7.40
2019-06-01T05:18:57.111Z,7.00
2019-06-01T05:19:57.107Z,6.90
2019-06-01T05:20:57.089Z,7.20
2019-06-01T05:21:57.092Z,7.20
2019-06-01T05:22:57.067Z,7.20
2019-06-01T05:23:57.054Z,6.80
2019-06-01T05:24:57.043Z,7.10
2019-06-01T05:25:57.032Z,6.80
2019-06-01T05:26:57.038Z,7.00
2019-06-01T05:27:57.011Z,6.90
2019-06-01T05:28:57.009Z,7.00
2019-06-01T05:29:56.995Z,6.50
2019-06-01T05:30:57.710Z,6.80
2019-06-01T05:31:56.985Z,8.40
2019-06-01T05:32:56.958Z,7.20
2019-06-01T05:33:56.958Z,7.80
2019-06-01T05:34:56.936Z,6.90
2019-06-01T05:35:56.923Z,6.40
2019-06-01T05:36:56.927Z,6.40
2019-06-01T05:37:56.904Z,6.60
2019-06-01T05:38:56.896Z,6.90
2019-06-01T05:39:56.881Z,6.60
2019-06-01T05:40:56.880Z,7.40
2019-06-01T05:41:56.872Z,6.80
2019-06-01T05:42:56.855Z,7.00
2019-06-01T05:43:56.844Z,7.00
2019-06-01T05:44:56.834Z,7.40
2019-06-01T05:45:56.833Z,8.50
2019-06-01T05:46:57.329Z,6.50
2019-06-01T05:47:56.803Z,7.70
2019-06-01T05:48:56.788Z,6.50
2019-06-01T05:49:56.776Z,6.90
2019-06-01T05:50:56.770Z,7.40
2019-06-01T05:51:56.775Z,6.80
2019-06-01T05:52:56.744Z,7.20
2019-06-01T05:53:56.752Z,7.90
2019-06-01T05:54:56.725Z,7.50
2019-06-01T05:55:56.717Z,7.60
2019-06-01T05:56:56.842Z,8.30
2019-06-01T05:57:56.691Z,8.60
2019-06-01T05:58:56.688Z,11.10
2019-06-01T05:59:57.253Z,9.50
2019-06-01T06:00:56.662Z,7.90
2019-06-01T06:01:56.663Z,7.60
2019-06-01T06:02:56.640Z,9.80
2019-06-01T06:03:56.625Z,8.40
2019-06-01T06:04:56.615Z,10.10
2019-06-01T06:05:56.610Z,8.30
2019-06-01T06:06:56.634Z,8.10
2019-06-01T06:07:56.599Z,8.70
2019-06-01T06:08:56.575Z,8.10
2019-06-01T06:09:56.568Z,8.10
2019-06-01T06:10:56.554Z,8.70
2019-06-01T06:11:56.566Z,8.80
2019-06-01T06:12:56.531Z,9.00
2019-06-01T06:13:56.531Z,8.90
2019-06-01T06:14:56.510Z,8.60
2019-06-01T06:15:56.509Z,11.60
2019-06-01T06:16:56.516Z,9.10
2019-06-01T06:17:56.492Z,9.40
2019-06-01T06:18:56.470Z,9.00
2019-06-01T06:19:56.470Z,9.60
2019-06-01T06:20:57.262Z,12.40
2019-06-01T06:21:56.453Z,12.00
2019-06-01T06:22:56.431Z,10.50
2019-06-01T06:23:56.418Z,9.80
2019-06-01T06:24:56.466Z,9.40
2019-06-01T06:25:57.319Z,9.20
2019-06-01T06:26:56.400Z,9.50
2019-06-01T06:27:56.383Z,9.60
2019-06-01T06:28:56.412Z,9.50
2019-06-01T06:29:56.355Z,9.10
2019-06-01T06:30:56.413Z,10.90
2019-06-01T06:31:56.365Z,10.60
2019-06-01T06:32:56.336Z,11.70
2019-06-01T06:33:57.229Z,9.70
2019-06-01T06:34:57.267Z,11.70
2019-06-01T06:35:56.304Z,11.00
2019-06-01T06:36:56.297Z,10.70
2019-06-01T06:37:56.281Z,10.30
2019-06-01T06:38:56.291Z,12.10
2019-06-01T06:39:56.254Z,10.50
2019-06-01T06:40:56.245Z,10.00
2019-06-01T06:41:56.265Z,10.50
2019-06-01T06:42:56.242Z,9.90
2019-06-01T06:43:56.229Z,10.50
2019-06-01T06:44:56.199Z,10.40
2019-06-01T06:45:56.195Z,10.60
2019-06-01T06:46:56.177Z,10.60
2019-06-01T06:47:56.197Z,10.90
2019-06-01T06:48:56.162Z,11.20
2019-06-01T06:49:56.157Z,10.80
2019-06-01T06:50:56.153Z,12.90
2019-06-01T06:51:56.144Z,11.70
2019-06-01T06:52:56.143Z,12.20
2019-06-01T06:53:56.113Z,12.40
2019-06-01T06:54:56.093Z,13.00
2019-06-01T06:55:56.090Z,11.50
2019-06-01T06:56:56.734Z,11.10
2019-06-01T06:57:56.093Z,13.50
2019-06-01T06:58:56.074Z,10.70
2019-06-01T06:59:56.804Z,12.40
2019-06-01T07:00:56.029Z,12.00
2019-06-01T07:01:56.039Z,14.90
2019-06-01T07:02:56.107Z,12.40
2019-06-01T07:04:09.397Z,13.20
2019-06-01T07:04:57.040Z,11.80
2019-06-01T07:05:55.984Z,17.30
2019-06-01T07:06:56.054Z,12.00
2019-06-01T07:07:55.987Z,13.70
2019-06-01T07:08:55.950Z,13.10
2019-06-01T07:09:55.951Z,14.40
2019-06-01T07:10:55.929Z,11.50
2019-06-01T07:11:55.942Z,12.80
2019-06-01T07:12:55.923Z,11.70
2019-06-01T07:13:55.896Z,11.10
2019-06-01T07:14:55.897Z,12.50
2019-06-01T07:15:55.891Z,12.80
2019-06-01T07:16:55.874Z,11.60
2019-06-01T07:17:55.868Z,11.20
2019-06-01T07:18:55.841Z,13.40
2019-06-01T07:19:55.831Z,11.80
2019-06-01T07:20:55.822Z,11.40
2019-06-01T07:21:55.810Z,11.40
2019-06-01T07:22:55.815Z,13.10
2019-06-01T07:23:55.811Z,11.60
2019-06-01T07:24:55.786Z,11.60
2019-06-01T07:25:55.774Z,11.50
2019-06-01T07:26:55.766Z,11.20
2019-06-01T07:27:55.769Z,10.80
2019-06-01T07:28:55.737Z,12.00
2019-06-01T07:29:55.727Z,12.10
2019-06-01T07:30:55.714Z,11.60
2019-06-01T07:31:55.702Z,11.20
2019-06-01T07:32:55.718Z,12.50
2019-06-01T07:33:55.705Z,10.80
2019-06-01T07:34:55.682Z,11.00
2019-06-01T07:35:55.669Z,11.60
2019-06-01T07:36:55.714Z,11.60
2019-06-01T07:37:55.658Z,10.40
2019-06-01T07:38:55.640Z,10.80
2019-06-01T07:39:55.624Z,11.00
2019-06-01T07:40:55.624Z,11.10
2019-06-01T07:41:55.624Z,11.90
2019-06-01T07:42:55.611Z,11.60
2019-06-01T07:43:55.583Z,11.40
2019-06-01T07:44:55.571Z,10.80
2019-06-01T07:45:55.569Z,10.80
2019-06-01T07:46:55.564Z,10.60
2019-06-01T07:47:55.687Z,12.40
2019-06-01T07:48:55.573Z,12.30
2019-06-01T07:49:55.574Z,11.00
2019-06-01T07:50:55.600Z,13.00
2019-06-01T07:51:55.720Z,11.20
2019-06-01T07:52:55.564Z,11.30
2019-06-01T07:53:55.510Z,11.70
2019-06-01T07:54:55.549Z,10.90
2019-06-01T07:55:55.529Z,11.50
2019-06-01T07:56:55.486Z,10.90
2019-06-01T07:57:55.560Z,10.70
2019-06-01T07:58:55.456Z,11.20
2019-06-01T07:59:55.424Z,11.50
2019-06-01T08:00:55.411Z,11.10
2019-06-01T08:01:55.488Z,10.80
2019-06-01T08:02:55.449Z,11.80
2019-06-01T08:03:55.396Z,11.30
2019-06-01T08:04:55.404Z,11.00
2019-06-01T08:05:55.440Z,11.20
2019-06-01T08:06:55.463Z,11.00
2019-06-01T08:07:55.439Z,13.60
2019-06-01T08:08:55.362Z,13.50
2019-06-01T08:09:55.364Z,14.00
2019-06-01T08:10:55.339Z,13.60
2019-06-01T08:11:55.304Z,11.80
2019-06-01T08:12:55.348Z,12.00
2019-06-01T08:13:55.301Z,16.10
2019-06-01T08:14:55.290Z,16.60
2019-06-01T08:15:55.285Z,13.30
2019-06-01T08:16:55.256Z,16.20
2019-06-01T08:17:55.259Z,12.90
2019-06-01T08:18:55.223Z,12.40
2019-06-01T08:19:55.216Z,11.40
2019-06-01T08:20:55.199Z,11.70
2019-06-01T08:21:55.188Z,13.00
2019-06-01T08:22:55.191Z,11.10
2019-06-01T08:23:55.191Z,13.10
2019-06-01T08:24:55.157Z,12.40
2019-06-01T08:25:55.155Z,10.30
2019-06-01T08:26:55.139Z,10.90
2019-06-01T08:27:55.152Z,10.20
2019-06-01T08:28:55.122Z,10.00
2019-06-01T08:29:55.105Z,10.50
2019-06-01T08:30:55.116Z,10.10
2019-06-01T08:31:56.019Z,10.10
2019-06-01T08:32:55.089Z,10.70
2019-06-01T08:33:55.063Z,11.30
2019-06-01T08:35:07.972Z,11.20
2019-06-01T08:35:56.087Z,10.40
2019-06-01T08:36:55.172Z,10.00
2019-06-01T08:37:55.158Z,10.20
2019-06-01T08:38:55.087Z,9.70
2019-06-01T08:39:58.907Z,12.70
2019-06-01T08:40:55.029Z,9.50
2019-06-01T08:41:54.990Z,9.80
2019-06-01T08:42:55.112Z,11.40
2019-06-01T08:43:54.991Z,10.60
2019-06-01T08:44:55.003Z,9.40
2019-06-01T08:45:54.977Z,10.40
2019-06-01T08:46:55.010Z,10.30
2019-06-01T08:47:55.038Z,10.00
2019-06-01T08:48:55.025Z,9.90
2019-06-01T08:49:54.975Z,11.00
2019-06-01T08:50:54.913Z,9.80
2019-06-01T08:51:54.993Z,9.80
2019-06-01T08:52:54.918Z,9.50
2019-06-01T08:53:54.959Z,9.10
2019-06-01T08:54:54.860Z,9.50
2019-06-01T08:55:54.875Z,11.60
2019-06-01T08:56:54.855Z,9.40
2019-06-01T08:57:54.917Z,8.90
2019-06-01T08:58:54.885Z,11.30
2019-06-01T08:59:54.800Z,9.10
2019-06-01T09:00:54.824Z,9.20
2019-06-01T09:01:54.858Z,8.80
2019-06-01T09:02:54.820Z,9.60
2019-06-01T09:03:55.861Z,9.50
2019-06-01T09:04:54.767Z,8.90
2019-06-01T09:05:54.790Z,9.10
2019-06-01T09:06:54.744Z,8.70
2019-06-01T09:07:54.763Z,8.70
2019-06-01T09:08:54.751Z,9.60
2019-06-01T09:09:54.735Z,8.70
2019-06-01T09:10:54.727Z,10.00
2019-06-01T09:11:54.785Z,9.90
2019-06-01T09:12:54.710Z,8.30
2019-06-01T09:13:54.795Z,7.80
2019-06-01T09:14:54.664Z,8.20
2019-06-01T09:15:54.656Z,8.70
2019-06-01T09:16:54.647Z,8.00
2019-06-01T09:17:54.667Z,7.90
2019-06-01T09:18:54.817Z,8.50
2019-06-01T09:19:54.677Z,8.50
2019-06-01T09:20:54.697Z,8.10
2019-06-01T09:21:54.607Z,8.40
2019-06-01T09:22:54.600Z,8.30
2019-06-01T09:23:54.619Z,9.50
2019-06-01T09:24:54.548Z,7.50
2019-06-01T09:25:54.549Z,9.00
2019-06-01T09:26:54.524Z,8.10
2019-06-01T09:27:54.598Z,8.00
2019-06-01T09:28:54.549Z,8.50
2019-06-01T09:29:54.512Z,9.50
2019-06-01T09:30:54.517Z,9.10
2019-06-01T09:31:54.496Z,8.70
2019-06-01T09:32:54.477Z,7.80
2019-06-01T09:33:54.469Z,10.40
2019-06-01T09:34:54.452Z,8.70
2019-06-01T09:35:56.354Z,8.20
2019-06-01T09:36:55.613Z,9.10
2019-06-01T09:37:54.441Z,7.60
2019-06-01T09:38:54.434Z,7.90
2019-06-01T09:39:54.431Z,10.00
2019-06-01T09:40:54.433Z,8.10
2019-06-01T09:41:54.365Z,7.20
2019-06-01T09:42:54.388Z,7.00
2019-06-01T09:43:54.405Z,7.10
2019-06-01T09:44:54.367Z,7.70
2019-06-01T09:45:54.376Z,7.80
2019-06-01T09:46:54.305Z,9.70
2019-06-01T09:47:54.347Z,7.40
2019-06-01T09:48:54.312Z,8.20
2019-06-01T09:49:54.297Z,8.40
2019-06-01T09:50:54.293Z,7.20
2019-06-01T09:51:54.293Z,8.50
2019-06-01T09:52:54.286Z,7.70
2019-06-01T09:53:54.323Z,7.30
2019-06-01T09:54:54.298Z,7.60
2019-06-01T09:55:54.248Z,7.20
2019-06-01T09:56:54.279Z,7.00
2019-06-01T09:57:54.297Z,9.30
2019-06-01T09:58:54.214Z,11.00
2019-06-01T09:59:54.232Z,7.00
2019-06-01T10:00:54.224Z,7.10
2019-06-01T10:01:54.269Z,8.60
2019-06-01T10:02:54.161Z,9.20
2019-06-01T10:03:54.249Z,7.40
2019-06-01T10:04:54.170Z,8.90
2019-06-01T10:06:01.951Z,6.80
2019-06-01T10:06:55.142Z,7.30
2019-06-01T10:07:54.129Z,7.10
2019-06-01T10:08:54.155Z,7.40
2019-06-01T10:09:54.115Z,7.90
2019-06-01T10:10:54.113Z,11.30
2019-06-01T10:11:54.077Z,9.30
2019-06-01T10:12:54.089Z,10.00
2019-06-01T10:13:54.077Z,8.80
2019-06-01T10:14:54.045Z,9.10
2019-06-01T10:15:54.018Z,9.90
2019-06-01T10:16:54.107Z,7.70
2019-06-01T10:17:54.071Z,7.50
2019-06-01T10:18:54.071Z,9.20
2019-06-01T10:19:53.997Z,9.10
2019-06-01T10:20:53.986Z,11.70
2019-06-01T10:21:53.972Z,8.30
2019-06-01T10:22:53.958Z,9.00
2019-06-01T10:23:53.993Z,9.90
2019-06-01T10:24:54.855Z,10.10
2019-06-01T10:25:53.926Z,9.20
2019-06-01T10:26:53.940Z,8.40
2019-06-01T10:27:53.927Z,8.80
2019-06-01T10:28:53.914Z,8.80
2019-06-01T10:29:53.885Z,7.60
2019-06-01T10:30:53.885Z,8.40
2019-06-01T10:31:53.845Z,7.80
2019-06-01T10:32:53.853Z,7.50
2019-06-01T10:33:53.929Z,9.20
2019-06-01T10:34:53.815Z,9.00
2019-06-01T10:35:53.824Z,7.30
2019-06-01T10:36:53.801Z,11.10
2019-06-01T10:37:53.814Z,8.60
2019-06-01T10:38:53.824Z,8.30
2019-06-01T10:39:53.760Z,9.50
2019-06-01T10:40:53.777Z,14.80
2019-06-01T10:41:53.778Z,13.90
2019-06-01T10:42:53.775Z,12.00
2019-06-01T10:43:53.783Z,12.60
2019-06-01T10:44:53.748Z,10.20
2019-06-01T10:45:53.735Z,10.90
2019-06-01T10:46:53.805Z,12.50
2019-06-01T10:47:53.726Z,11.80
2019-06-01T10:48:53.660Z,14.90
2019-06-01T10:49:53.743Z,12.80
2019-06-01T10:50:53.698Z,13.60
2019-06-01T10:51:53.695Z,13.50
2019-06-01T10:52:53.618Z,11.10
2019-06-01T10:53:53.611Z,11.60
2019-06-01T10:54:53.627Z,11.10
2019-06-01T10:55:53.615Z,11.80
2019-06-01T10:56:53.698Z,14.00
2019-06-01T10:57:53.619Z,11.90
2019-06-01T10:59:00.135Z,12.90
2019-06-01T10:59:54.693Z,16.20
2019-06-01T11:00:53.535Z,15.10
2019-06-01T11:01:53.554Z,12.70
2019-06-01T11:02:53.578Z,14.90
2019-06-01T11:03:53.579Z,15.50
2019-06-01T11:04:53.522Z,19.90
2019-06-01T11:05:53.533Z,17.40
2019-06-01T11:06:54.381Z,21.90
2019-06-01T11:07:53.461Z,16.30
2019-06-01T11:08:53.554Z,16.10
2019-06-01T11:09:53.509Z,18.90
2019-06-01T11:10:53.578Z,17.30
2019-06-01T11:11:53.450Z,16.00
2019-06-01T11:12:53.406Z,17.10
2019-06-01T11:13:53.403Z,18.70
2019-06-01T11:14:53.505Z,14.40
2019-06-01T11:15:53.396Z,16.40
2019-06-01T11:16:56.430Z,15.30
2019-06-01T11:17:53.380Z,20.00
2019-06-01T11:18:53.380Z,14.60
2019-06-01T11:19:53.385Z,15.80
2019-06-01T11:20:53.350Z,15.10
2019-06-01T11:21:53.375Z,13.50
2019-06-01T11:22:53.323Z,15.30
2019-06-01T11:23:53.328Z,19.40
2019-06-01T11:24:53.353Z,18.80
2019-06-01T11:25:53.294Z,15.60
2019-06-01T11:26:53.285Z,15.70
2019-06-01T11:27:53.297Z,15.00
2019-06-01T11:28:53.276Z,15.90
2019-06-01T11:29:53.425Z,14.70
2019-06-01T11:30:53.252Z,28.70
2019-06-01T11:31:53.236Z,39.90
2019-06-01T11:32:53.224Z,26.30
2019-06-01T11:33:53.200Z,23.60
2019-06-01T11:34:53.264Z,21.50
2019-06-01T11:35:53.266Z,18.40
2019-06-01T11:37:05.047Z,20.00
2019-06-01T11:37:54.189Z,19.20
2019-06-01T11:38:53.140Z,26.00
2019-06-01T11:39:53.250Z,26.20
2019-06-01T11:40:53.144Z,26.40
2019-06-01T11:41:53.149Z,26.60
2019-06-01T11:42:53.115Z,23.10
2019-06-01T11:43:53.113Z,21.70
2019-06-01T11:44:53.241Z,25.00
2019-06-01T11:45:53.076Z,21.10
2019-06-01T11:46:53.110Z,18.20
2019-06-01T11:47:53.102Z,17.60
2019-06-01T11:48:53.040Z,18.60
2019-06-01T11:49:53.103Z,17.70
2019-06-01T11:50:53.040Z,13.20
2019-06-01T11:51:53.116Z,15.70
2019-06-01T11:52:53.004Z,15.10
2019-06-01T11:53:52.996Z,19.20
2019-06-01T11:54:53.056Z,13.60
2019-06-01T11:55:52.984Z,14.90
2019-06-01T11:56:53.004Z,16.80
2019-06-01T11:57:52.990Z,18.00
2019-06-01T11:58:52.950Z,20.00
2019-06-01T11:59:52.973Z,12.90
2019-06-01T12:00:53.008Z,18.80
2019-06-01T12:01:52.922Z,18.40
2019-06-01T12:02:52.886Z,17.60
2019-06-01T12:03:52.907Z,13.30
2019-06-01T12:04:52.907Z,14.30
2019-06-01T12:05:52.898Z,14.20
2019-06-01T12:06:52.988Z,14.90
2019-06-01T12:07:59.548Z,13.70
2019-06-01T12:08:52.840Z,12.60
2019-06-01T12:09:52.856Z,12.70
2019-06-01T12:10:52.891Z,21.80
2019-06-01T12:11:52.795Z,20.90
2019-06-01T12:12:52.823Z,17.40
2019-06-01T12:13:52.807Z,18.10
2019-06-01T12:14:52.812Z,15.60
2019-06-01T12:15:52.773Z,16.30
2019-06-01T12:16:52.771Z,12.70
2019-06-01T12:17:52.743Z,14.40
2019-06-01T12:18:52.722Z,11.70
2019-06-01T12:19:52.769Z,15.80
2019-06-01T12:20:52.758Z,14.30
2019-06-01T12:21:52.762Z,10.00
2019-06-01T12:22:52.680Z,15.10
2019-06-01T12:23:52.706Z,11.40
2019-06-01T12:24:52.692Z,10.80
2019-06-01T12:25:52.765Z,11.40
2019-06-01T12:26:52.715Z,14.40
2019-06-01T12:27:52.650Z,10.70
2019-06-01T12:28:52.621Z,10.30
2019-06-01T12:29:52.763Z,14.40
2019-06-01T12:30:52.637Z,17.00
2019-06-01T12:31:52.831Z,14.40
2019-06-01T12:32:52.664Z,13.00
2019-06-01T12:33:52.590Z,14.00
2019-06-01T12:34:52.566Z,11.80
2019-06-01T12:35:52.610Z,13.10
2019-06-01T12:36:53.079Z,11.70
2019-06-01T12:38:05.345Z,9.20
2019-06-01T12:38:54.355Z,10.10
2019-06-01T12:39:54.310Z,12.50
2019-06-01T12:40:52.549Z,10.00
2019-06-01T12:41:52.512Z,13.70
2019-06-01T12:42:52.556Z,12.20
2019-06-01T12:43:52.644Z,14.40
2019-06-01T12:44:52.541Z,13.30
2019-06-01T12:46:06.555Z,11.60
2019-06-01T12:46:53.418Z,10.40
2019-06-01T12:47:57.710Z,11.30
2019-06-01T12:48:53.465Z,14.10
2019-06-01T12:49:52.729Z,11.10
2019-06-01T12:50:59.003Z,12.70
2019-06-01T12:51:53.037Z,14.40
2019-06-01T12:52:52.774Z,15.20
2019-06-01T12:53:52.787Z,11.90
2019-06-01T12:54:53.190Z,11.60
2019-06-01T12:55:53.044Z,11.30
2019-06-01T12:56:53.073Z,10.30
2019-06-01T12:57:52.333Z,11.20
2019-06-01T12:58:52.345Z,14.00
2019-06-01T12:59:53.120Z,13.10
2019-06-01T13:00:52.554Z,9.50
2019-06-01T13:01:52.286Z,10.30
2019-06-01T13:03:05.983Z,10.60
2019-06-01T13:03:53.313Z,10.40
2019-06-01T13:04:53.100Z,10.70
2019-06-01T13:05:52.313Z,13.70
2019-06-01T13:06:53.814Z,11.60
2019-06-01T13:08:01.507Z,8.30